createdAt,value
2018-09-26T00:00:07.186Z,1022.1
2018-09-26T00:01:08.575Z,1022.2
2018-09-26T00:02:09.962Z,1022.1
2018-09-26T00:03:11.347Z,1022.1
2018-09-26T00:04:12.734Z,1022.1
2018-09-26T00:05:14.123Z,1022.2
2018-09-26T00:06:15.508Z,1022.1
2018-09-26T00:07:16.899Z,1022.2
2018-09-26T00:08:18.288Z,1022.2
2018-09-26T00:09:19.676Z,1022.1
2018-09-26T00:10:21.074Z,1022.1
2018-09-26T00:11:22.457Z,1022.1
2018-09-26T00:12:23.844Z,1022.2
2018-09-26T00:13:25.230Z,1022.2
2018-09-26T00:14:26.629Z,1022.2
2018-09-26T00:15:28.015Z,1022.2
2018-09-26T00:16:29.402Z,1022.2
2018-09-26T00:17:30.800Z,1022.2
2018-09-26T00:18:32.185Z,1022.2
2018-09-26T00:19:33.582Z,1022.3
2018-09-26T00:20:34.961Z,1022.3
2018-09-26T00:21:36.350Z,1022.3
2018-09-26T00:22:37.732Z,1022.3
2018-09-26T00:23:39.133Z,1022.3
2018-09-26T00:24:40.520Z,1022.3
2018-09-26T00:25:41.911Z,1022.3
2018-09-26T00:26:43.297Z,1022.3
2018-09-26T00:27:44.682Z,1022.3
2018-09-26T00:28:46.074Z,1022.3
2018-09-26T00:29:47.460Z,1022.2
2018-09-26T00:30:48.905Z,1022.3
2018-09-26T00:31:50.303Z,1022.3
2018-09-26T00:32:51.697Z,1022.3
2018-09-26T00:33:53.089Z,1022.3
2018-09-26T00:34:54.476Z,1022.3
2018-09-26T00:35:55.895Z,1022.3
2018-09-26T00:36:57.254Z,1022.3
2018-09-26T00:37:58.637Z,1022.3
2018-09-26T00:39:00.024Z,1022.3
2018-09-26T00:40:01.411Z,1022.3
2018-09-26T00:41:02.800Z,1022.4
2018-09-26T00:42:04.186Z,1022.4
2018-09-26T00:43:05.577Z,1022.4
2018-09-26T00:44:06.964Z,1022.4
2018-09-26T00:45:08.351Z,1022.4
2018-09-26T00:46:09.736Z,1022.4
2018-09-26T00:47:11.121Z,1022.4
2018-09-26T00:48:12.509Z,1022.4
2018-09-26T00:49:13.899Z,1022.4
2018-09-26T00:50:15.288Z,1022.4
2018-09-26T00:51:16.678Z,1022.4
2018-09-26T00:52:18.065Z,1022.4
2018-09-26T00:53:19.452Z,1022.3
2018-09-26T00:54:20.838Z,1022.3
2018-09-26T00:55:22.225Z,1022.3
2018-09-26T00:56:23.614Z,1022.3
2018-09-26T00:57:25.001Z,1022.3
2018-09-26T00:58:26.387Z,1022.3
2018-09-26T00:59:27.776Z,1022.2
2018-09-26T01:00:29.161Z,1022.2
2018-09-26T01:01:30.552Z,1022.2
2018-09-26T01:02:32.035Z,1022.2
2018-09-26T01:03:33.420Z,1022.2
2018-09-26T01:04:34.819Z,1022.3
2018-09-26T01:05:36.199Z,1022.3
2018-09-26T01:06:37.586Z,1022.2
2018-09-26T01:07:38.973Z,1022.2
2018-09-26T01:08:40.368Z,1022.2
2018-09-26T01:09:41.749Z,1022.2
2018-09-26T01:10:43.135Z,1022.1
2018-09-26T01:11:44.518Z,1022.1
2018-09-26T01:12:45.909Z,1022.2
2018-09-26T01:13:47.300Z,1022.1
2018-09-26T01:14:48.686Z,1022.1
2018-09-26T01:15:50.071Z,1022.1
2018-09-26T01:16:51.460Z,1022.1
2018-09-26T01:17:52.843Z,1022.0
2018-09-26T01:18:54.231Z,1022.0
2018-09-26T01:19:55.618Z,1022.0
2018-09-26T01:20:57.067Z,1021.9
2018-09-26T01:21:58.450Z,1021.9
2018-09-26T01:22:59.832Z,1021.9
2018-09-26T01:24:01.219Z,1021.9
2018-09-26T01:25:02.606Z,1021.9
2018-09-26T01:26:03.990Z,1021.9
2018-09-26T01:27:05.374Z,1021.9
2018-09-26T01:28:06.753Z,1021.8
2018-09-26T01:29:08.147Z,1021.8
2018-09-26T01:30:09.525Z,1021.8
2018-09-26T01:31:10.923Z,1021.8
2018-09-26T01:32:12.308Z,1021.8
2018-09-26T01:33:13.701Z,1021.8
2018-09-26T01:34:15.081Z,1021.7
2018-09-26T01:35:16.467Z,1021.8
2018-09-26T01:36:17.850Z,1021.7
2018-09-26T01:37:19.241Z,1021.7
2018-09-26T01:38:20.624Z,1021.7
2018-09-26T01:39:22.015Z,1021.7
2018-09-26T01:40:23.400Z,1021.7
2018-09-26T01:41:24.792Z,1021.6
2018-09-26T01:42:26.166Z,1021.6
2018-09-26T01:43:27.550Z,1021.6
2018-09-26T01:44:28.936Z,1021.6
2018-09-26T01:45:30.324Z,1021.6
2018-09-26T01:46:31.710Z,1021.6
2018-09-26T01:47:33.107Z,1021.5
2018-09-26T01:48:34.486Z,1021.5
2018-09-26T01:49:35.868Z,1021.5
2018-09-26T01:50:37.252Z,1021.5
2018-09-26T01:51:38.641Z,1021.6
2018-09-26T01:52:40.025Z,1021.5
2018-09-26T01:53:41.409Z,1021.5
2018-09-26T01:54:42.802Z,1021.5
2018-09-26T01:55:44.188Z,1021.6
2018-09-26T01:56:45.575Z,1021.5
2018-09-26T01:57:46.959Z,1021.6
2018-09-26T01:58:48.345Z,1021.6
2018-09-26T01:59:49.729Z,1021.6
2018-09-26T02:00:51.115Z,1021.5
2018-09-26T02:01:52.500Z,1021.5
2018-09-26T02:02:53.887Z,1021.6
2018-09-26T02:03:55.272Z,1021.6
2018-09-26T02:04:56.657Z,1021.6
2018-09-26T02:05:58.045Z,1021.7
2018-09-26T02:06:59.433Z,1021.7
2018-09-26T02:08:00.816Z,1021.7
2018-09-26T02:09:02.203Z,1021.7
2018-09-26T02:10:03.596Z,1021.7
2018-09-26T02:11:04.985Z,1021.7
2018-09-26T02:12:06.374Z,1021.7
2018-09-26T02:13:07.760Z,1021.7
2018-09-26T02:14:09.139Z,1021.8
2018-09-26T02:15:10.523Z,1021.8
2018-09-26T02:16:11.910Z,1021.8
2018-09-26T02:17:13.297Z,1021.8
2018-09-26T02:18:14.679Z,1021.7
2018-09-26T02:19:16.067Z,1021.8
2018-09-26T02:20:17.453Z,1021.8
2018-09-26T02:21:18.851Z,1021.8
2018-09-26T02:22:20.238Z,1021.8
2018-09-26T02:23:21.620Z,1021.8
2018-09-26T02:24:23.000Z,1021.8
2018-09-26T02:25:24.388Z,1021.7
2018-09-26T02:26:25.770Z,1021.8
2018-09-26T02:27:27.162Z,1021.7
2018-09-26T02:28:28.551Z,1021.7
2018-09-26T02:29:29.935Z,1021.7
2018-09-26T02:30:31.322Z,1021.7
2018-09-26T02:31:32.710Z,1021.7
2018-09-26T02:32:34.094Z,1021.6
2018-09-26T02:33:35.479Z,1021.7
2018-09-26T02:34:36.971Z,1021.6
2018-09-26T02:35:38.328Z,1021.7
2018-09-26T02:36:39.719Z,1021.7
2018-09-26T02:37:41.100Z,1021.7
2018-09-26T02:38:42.498Z,1021.7
2018-09-26T02:39:43.877Z,1021.7
2018-09-26T02:40:45.263Z,1021.7
2018-09-26T02:41:46.645Z,1021.7
2018-09-26T02:42:48.032Z,1021.7
2018-09-26T02:43:49.416Z,1021.6
2018-09-26T02:44:50.802Z,1021.6
2018-09-26T02:45:52.187Z,1021.7
2018-09-26T02:46:53.572Z,1021.6
2018-09-26T02:47:54.953Z,1021.6
2018-09-26T02:48:56.336Z,1021.7
2018-09-26T02:49:57.727Z,1021.7
2018-09-26T02:50:59.115Z,1021.7
2018-09-26T02:52:00.502Z,1021.6
2018-09-26T02:53:01.880Z,1021.6
2018-09-26T02:54:03.261Z,1021.6
2018-09-26T02:55:04.646Z,1021.6
2018-09-26T02:56:06.031Z,1021.6
2018-09-26T02:57:07.425Z,1021.6
2018-09-26T02:58:08.810Z,1021.6
2018-09-26T02:59:10.199Z,1021.6
2018-09-26T03:00:11.582Z,1021.6
2018-09-26T03:01:12.965Z,1021.5
2018-09-26T03:02:14.352Z,1021.5
2018-09-26T03:03:15.954Z,1021.4
2018-09-26T03:04:17.462Z,1021.4
2018-09-26T03:05:18.881Z,1021.4
2018-09-26T03:06:20.243Z,1021.4
2018-09-26T03:07:21.628Z,1021.4
2018-09-26T03:08:23.008Z,1021.4
2018-09-26T03:09:24.401Z,1021.3
2018-09-26T03:10:25.795Z,1021.3
2018-09-26T03:11:27.181Z,1021.2
2018-09-26T03:12:28.566Z,1021.2
2018-09-26T03:13:29.955Z,1021.2
2018-09-26T03:14:31.340Z,1021.2
2018-09-26T03:15:32.721Z,1021.1
2018-09-26T03:16:34.105Z,1021.1
2018-09-26T03:17:35.564Z,1021.2
2018-09-26T03:18:36.940Z,1021.2
2018-09-26T03:19:38.263Z,1021.3
2018-09-26T03:20:39.685Z,1021.2
2018-09-26T03:21:41.069Z,1021.3
2018-09-26T03:22:42.453Z,1021.3
2018-09-26T03:23:43.842Z,1021.3
2018-09-26T03:24:45.234Z,1021.4
2018-09-26T03:25:46.613Z,1021.4
2018-09-26T03:26:48.002Z,1021.4
2018-09-26T03:27:49.388Z,1021.4
2018-09-26T03:28:50.773Z,1021.4
2018-09-26T03:29:52.159Z,1021.4
2018-09-26T03:30:53.545Z,1021.4
2018-09-26T03:31:54.934Z,1021.4
2018-09-26T03:32:56.311Z,1021.4
2018-09-26T03:33:57.698Z,1021.4
2018-09-26T03:34:59.083Z,1021.4
2018-09-26T03:36:00.492Z,1021.4
2018-09-26T03:37:01.891Z,1021.4
2018-09-26T03:38:03.244Z,1021.4
2018-09-26T03:39:04.629Z,1021.4
2018-09-26T03:40:06.016Z,1021.3
2018-09-26T03:41:07.407Z,1021.3
2018-09-26T03:42:08.794Z,1021.3
2018-09-26T03:43:10.182Z,1021.3
2018-09-26T03:44:11.568Z,1021.3
2018-09-26T03:45:12.951Z,1021.3
2018-09-26T03:46:14.338Z,1021.3
2018-09-26T03:47:15.720Z,1021.3
2018-09-26T03:48:17.105Z,1021.3
2018-09-26T03:49:18.496Z,1021.3
2018-09-26T03:50:19.877Z,1021.3
2018-09-26T03:51:21.270Z,1021.3
2018-09-26T03:52:22.647Z,1021.3
2018-09-26T03:53:24.033Z,1021.3
2018-09-26T03:54:25.504Z,1021.3
2018-09-26T03:55:26.902Z,1021.3
2018-09-26T03:56:28.290Z,1021.2
2018-09-26T03:57:29.669Z,1021.2
2018-09-26T03:58:31.057Z,1021.2
2018-09-26T03:59:32.444Z,1021.2
2018-09-26T04:00:33.836Z,1021.2
2018-09-26T04:01:35.230Z,1021.3
2018-09-26T04:02:36.615Z,1021.2
2018-09-26T04:03:38.000Z,1021.2
2018-09-26T04:04:39.383Z,1021.2
2018-09-26T04:05:40.763Z,1021.3
2018-09-26T04:06:42.149Z,1021.3
2018-09-26T04:07:43.537Z,1021.3
2018-09-26T04:08:44.921Z,1021.4
2018-09-26T04:09:46.306Z,1021.4
2018-09-26T04:10:47.702Z,1021.4
2018-09-26T04:11:49.076Z,1021.5
2018-09-26T04:12:50.558Z,1021.5
2018-09-26T04:13:51.850Z,1021.5
2018-09-26T04:14:53.235Z,1021.5
2018-09-26T04:15:54.621Z,1021.5
2018-09-26T04:16:56.011Z,1021.4
2018-09-26T04:17:57.392Z,1021.4
2018-09-26T04:18:58.776Z,1021.5
2018-09-26T04:20:00.165Z,1021.4
2018-09-26T04:21:01.577Z,1021.4
2018-09-26T04:22:02.928Z,1021.4
2018-09-26T04:23:04.314Z,1021.4
2018-09-26T04:24:05.702Z,1021.4
2018-09-26T04:25:07.093Z,1021.4
2018-09-26T04:26:08.511Z,1021.4
2018-09-26T04:27:09.919Z,1021.4
2018-09-26T04:28:11.309Z,1021.4
2018-09-26T04:29:12.749Z,1021.4
2018-09-26T04:30:14.177Z,1021.4
2018-09-26T04:31:15.538Z,1021.4
2018-09-26T04:32:16.926Z,1021.3
2018-09-26T04:33:18.525Z,1021.4
2018-09-26T04:34:19.697Z,1021.4
2018-09-26T04:35:21.078Z,1021.4
2018-09-26T04:36:22.466Z,1021.4
2018-09-26T04:37:23.939Z,1021.4
2018-09-26T04:38:25.370Z,1021.4
2018-09-26T04:39:26.718Z,1021.5
2018-09-26T04:40:28.113Z,1021.5
2018-09-26T04:41:29.496Z,1021.5
2018-09-26T04:42:30.881Z,1021.4
2018-09-26T04:43:32.314Z,1021.3
2018-09-26T04:44:33.780Z,1021.4
2018-09-26T04:45:35.164Z,1021.4
2018-09-26T04:46:36.545Z,1021.4
2018-09-26T04:47:37.931Z,1021.4
2018-09-26T04:48:39.312Z,1021.4
2018-09-26T04:49:40.697Z,1021.4
2018-09-26T04:50:42.121Z,1021.4
2018-09-26T04:51:43.583Z,1021.4
2018-09-26T04:52:44.974Z,1021.4
2018-09-26T04:53:46.360Z,1021.4
2018-09-26T04:54:47.744Z,1021.4
2018-09-26T04:55:49.128Z,1021.5
2018-09-26T04:56:50.511Z,1021.5
2018-09-26T04:57:51.924Z,1021.5
2018-09-26T04:58:53.289Z,1021.5
2018-09-26T04:59:54.667Z,1021.6
2018-09-26T05:00:56.061Z,1021.5
2018-09-26T05:01:57.445Z,1021.5
2018-09-26T05:02:58.832Z,1021.6
2018-09-26T05:04:00.217Z,1021.6
2018-09-26T05:05:01.606Z,1021.5
2018-09-26T05:06:02.987Z,1021.6
2018-09-26T05:07:04.379Z,1021.5
2018-09-26T05:08:05.769Z,1021.6
2018-09-26T05:09:07.152Z,1021.6
2018-09-26T05:10:08.537Z,1021.6
2018-09-26T05:11:09.923Z,1021.6
2018-09-26T05:12:11.309Z,1021.6
2018-09-26T05:13:12.698Z,1021.6
2018-09-26T05:14:14.100Z,1021.6
2018-09-26T05:15:15.487Z,1021.6
2018-09-26T05:16:16.871Z,1021.6
2018-09-26T05:17:18.256Z,1021.6
2018-09-26T05:18:19.640Z,1021.5
2018-09-26T05:19:21.036Z,1021.5
2018-09-26T05:20:22.428Z,1021.6
2018-09-26T05:21:23.814Z,1021.6
2018-09-26T05:22:25.203Z,1021.6
2018-09-26T05:23:26.590Z,1021.7
2018-09-26T05:24:27.974Z,1021.6
2018-09-26T05:25:29.360Z,1021.6
2018-09-26T05:26:30.746Z,1021.5
2018-09-26T05:27:32.133Z,1021.5
2018-09-26T05:28:33.520Z,1021.5
2018-09-26T05:29:34.910Z,1021.5
2018-09-26T05:30:36.292Z,1021.6
2018-09-26T05:31:37.676Z,1021.5
2018-09-26T05:32:39.072Z,1021.5
2018-09-26T05:33:40.464Z,1021.5
2018-09-26T05:34:41.852Z,1021.5
2018-09-26T05:35:43.288Z,1021.5
2018-09-26T05:36:44.720Z,1021.5
2018-09-26T05:37:46.110Z,1021.5
2018-09-26T05:38:47.504Z,1021.5
2018-09-26T05:39:48.914Z,1021.5
2018-09-26T05:40:50.302Z,1021.5
2018-09-26T05:41:51.730Z,1021.5
2018-09-26T05:42:53.081Z,1021.5
2018-09-26T05:43:54.471Z,1021.5
2018-09-26T05:44:55.863Z,1021.6
2018-09-26T05:45:57.247Z,1021.6
2018-09-26T05:46:58.636Z,1021.6
2018-09-26T05:48:00.037Z,1021.5
2018-09-26T05:49:01.424Z,1021.6
2018-09-26T05:50:02.948Z,1021.6
2018-09-26T05:51:04.444Z,1021.6
2018-09-26T05:52:06.252Z,1021.6
2018-09-26T05:53:07.567Z,1021.6
2018-09-26T05:54:08.959Z,1021.5
2018-09-26T05:55:10.347Z,1021.6
2018-09-26T05:56:11.742Z,1021.5
2018-09-26T05:57:13.131Z,1021.5
2018-09-26T05:58:14.527Z,1021.5
2018-09-26T05:59:15.941Z,1021.5
2018-09-26T06:00:17.332Z,1021.4
2018-09-26T06:01:18.720Z,1021.5
2018-09-26T06:02:20.105Z,1021.4
2018-09-26T06:03:21.496Z,1021.4
2018-09-26T06:04:22.881Z,1021.4
2018-09-26T06:05:24.321Z,1021.4
2018-09-26T06:06:25.653Z,1021.4
2018-09-26T06:07:27.037Z,1021.4
2018-09-26T06:08:28.433Z,1021.4
2018-09-26T06:09:29.815Z,1021.4
2018-09-26T06:10:31.207Z,1021.4
2018-09-26T06:11:32.594Z,1021.4
2018-09-26T06:12:33.983Z,1021.4
2018-09-26T06:13:35.372Z,1021.4
2018-09-26T06:14:36.758Z,1021.3
2018-09-26T06:15:38.153Z,1021.3
2018-09-26T06:16:39.543Z,1021.3
2018-09-26T06:17:40.937Z,1021.4
2018-09-26T06:18:42.325Z,1021.4
2018-09-26T06:19:43.717Z,1021.3
2018-09-26T06:20:45.127Z,1021.3
2018-09-26T06:21:46.501Z,1021.3
2018-09-26T06:22:47.888Z,1021.3
2018-09-26T06:23:49.275Z,1021.4
2018-09-26T06:24:50.707Z,1021.4
2018-09-26T06:25:52.195Z,1021.4
2018-09-26T06:26:53.594Z,1021.5
2018-09-26T06:27:54.975Z,1021.4
2018-09-26T06:28:56.379Z,1021.5
2018-09-26T06:29:57.771Z,1021.5
2018-09-26T06:30:59.157Z,1021.5
2018-09-26T06:32:00.551Z,1021.5
2018-09-26T06:33:01.962Z,1021.5
2018-09-26T06:34:03.351Z,1021.5
2018-09-26T06:35:04.784Z,1021.5
2018-09-26T06:36:06.126Z,1021.5
2018-09-26T06:37:07.522Z,1021.4
2018-09-26T06:38:08.903Z,1021.5
2018-09-26T06:39:10.337Z,1021.5
2018-09-26T06:40:11.723Z,1021.4
2018-09-26T06:41:13.115Z,1021.5
2018-09-26T06:42:14.500Z,1021.5
2018-09-26T06:43:15.888Z,1021.6
2018-09-26T06:44:17.280Z,1021.5
2018-09-26T06:45:18.729Z,1021.4
2018-09-26T06:46:20.112Z,1021.5
2018-09-26T06:47:21.550Z,1021.4
2018-09-26T06:48:22.916Z,1021.5
2018-09-26T06:49:24.303Z,1021.5
2018-09-26T06:50:25.690Z,1021.5
2018-09-26T06:51:27.077Z,1021.5
2018-09-26T06:52:28.473Z,1021.5
2018-09-26T06:53:29.870Z,1021.5
2018-09-26T06:54:31.264Z,1021.6
2018-09-26T06:55:32.656Z,1021.5
2018-09-26T06:56:34.044Z,1021.6
2018-09-26T06:57:35.474Z,1021.5
2018-09-26T06:58:36.902Z,1021.5
2018-09-26T06:59:38.296Z,1021.5
2018-09-26T07:00:39.692Z,1021.5
2018-09-26T07:01:41.098Z,1021.5
2018-09-26T07:02:42.488Z,1021.5
2018-09-26T07:03:43.880Z,1021.6
2018-09-26T07:04:45.281Z,1021.6
2018-09-26T07:05:46.671Z,1021.5
2018-09-26T07:06:48.070Z,1021.5
2018-09-26T07:07:50.102Z,1021.5
2018-09-26T07:08:50.826Z,1021.4
2018-09-26T07:09:52.216Z,1021.5
2018-09-26T07:10:53.605Z,1021.5
2018-09-26T07:11:55.000Z,1021.4
2018-09-26T07:12:56.385Z,1021.4
2018-09-26T07:13:57.778Z,1021.4
2018-09-26T07:14:59.172Z,1021.4
2018-09-26T07:16:00.597Z,1021.4
2018-09-26T07:17:02.003Z,1021.3
2018-09-26T07:18:03.388Z,1021.3
2018-09-26T07:19:04.784Z,1021.3
2018-09-26T07:20:06.179Z,1021.3
2018-09-26T07:21:07.610Z,1021.3
2018-09-26T07:22:09.290Z,1021.3
2018-09-26T07:23:10.633Z,1021.3
2018-09-26T07:24:12.031Z,1021.4
2018-09-26T07:25:13.416Z,1021.4
2018-09-26T07:26:14.808Z,1021.4
2018-09-26T07:27:16.761Z,1021.4
2018-09-26T07:28:18.151Z,1021.4
2018-09-26T07:29:19.545Z,1021.4
2018-09-26T07:30:20.934Z,1021.3
2018-09-26T07:31:22.351Z,1021.3
2018-09-26T07:32:24.288Z,1021.3
2018-09-26T07:33:25.675Z,1021.3
2018-09-26T07:34:27.068Z,1021.2
2018-09-26T07:35:28.561Z,1021.3
2018-09-26T07:36:29.954Z,1021.2
2018-09-26T07:37:31.350Z,1021.3
2018-09-26T07:38:32.802Z,1021.3
2018-09-26T07:39:34.132Z,1021.3
2018-09-26T07:40:35.540Z,1021.2
2018-09-26T07:41:36.932Z,1021.3
2018-09-26T07:42:38.338Z,1021.3
2018-09-26T07:43:39.727Z,1021.3
2018-09-26T07:44:41.120Z,1021.3
2018-09-26T07:45:42.536Z,1021.3
2018-09-26T07:46:43.908Z,1021.4
2018-09-26T07:47:45.327Z,1021.4
2018-09-26T07:48:46.719Z,1021.4
2018-09-26T07:49:48.112Z,1021.3
2018-09-26T07:50:49.503Z,1021.4
2018-09-26T07:51:51.249Z,1021.3
2018-09-26T07:52:52.667Z,1021.3
2018-09-26T07:53:54.591Z,1021.3
2018-09-26T07:54:56.020Z,1021.3
2018-09-26T07:55:57.792Z,1021.3
2018-09-26T07:56:59.028Z,1021.3
2018-09-26T07:58:00.424Z,1021.3
2018-09-26T07:59:01.900Z,1021.3
2018-09-26T08:00:03.302Z,1021.3
2018-09-26T08:01:04.674Z,1021.4
2018-09-26T08:02:06.153Z,1021.4
2018-09-26T08:03:07.848Z,1021.5
2018-09-26T08:04:09.241Z,1021.5
2018-09-26T08:05:10.667Z,1021.5
2018-09-26T08:06:12.060Z,1021.5
2018-09-26T08:07:13.495Z,1021.5
2018-09-26T08:08:14.898Z,1021.5
2018-09-26T08:09:16.291Z,1021.4
2018-09-26T08:10:17.737Z,1021.5
2018-09-26T08:11:19.160Z,1021.5
2018-09-26T08:12:20.531Z,1021.5
2018-09-26T08:13:21.923Z,1021.5
2018-09-26T08:14:23.326Z,1021.6
2018-09-26T08:15:24.717Z,1021.5
2018-09-26T08:16:26.113Z,1021.5
2018-09-26T08:17:27.510Z,1021.6
2018-09-26T08:18:28.937Z,1021.5
2018-09-26T08:19:30.314Z,1021.5
2018-09-26T08:20:31.712Z,1021.5
2018-09-26T08:21:33.113Z,1021.5
2018-09-26T08:22:35.259Z,1021.5
2018-09-26T08:23:36.666Z,1021.6
2018-09-26T08:24:38.119Z,1021.6
2018-09-26T08:25:39.511Z,1021.6
2018-09-26T08:26:40.938Z,1021.6
2018-09-26T08:27:42.336Z,1021.6
2018-09-26T08:28:43.732Z,1021.5
2018-09-26T08:29:45.264Z,1021.6
2018-09-26T08:30:46.625Z,1021.6
2018-09-26T08:31:48.026Z,1021.6
2018-09-26T08:32:49.454Z,1021.6
2018-09-26T08:33:50.853Z,1021.6
2018-09-26T08:34:52.251Z,1021.5
2018-09-26T08:35:53.651Z,1021.6
2018-09-26T08:36:55.049Z,1021.6
2018-09-26T08:37:56.452Z,1021.6
2018-09-26T08:38:57.867Z,1021.6
2018-09-26T08:39:59.260Z,1021.6
2018-09-26T08:41:00.661Z,1021.6
2018-09-26T08:42:02.076Z,1021.6
2018-09-26T08:43:03.481Z,1021.5
2018-09-26T08:44:04.916Z,1021.6
2018-09-26T08:45:06.289Z,1021.6
2018-09-26T08:46:07.687Z,1021.6
2018-09-26T08:47:09.617Z,1021.5
2018-09-26T08:48:10.473Z,1021.5
2018-09-26T08:49:11.957Z,1021.5
2018-09-26T08:50:13.354Z,1021.5
2018-09-26T08:51:14.758Z,1021.5
2018-09-26T08:52:16.159Z,1021.5
2018-09-26T08:53:17.559Z,1021.5
2018-09-26T08:54:18.960Z,1021.5
2018-09-26T08:55:20.357Z,1021.5
2018-09-26T08:56:21.757Z,1021.5
2018-09-26T08:57:23.199Z,1021.5
2018-09-26T08:58:24.598Z,1021.5
2018-09-26T08:59:25.994Z,1021.5
2018-09-26T09:00:27.394Z,1021.5
2018-09-26T09:01:28.785Z,1021.4
2018-09-26T09:02:30.183Z,1021.5
2018-09-26T09:03:31.576Z,1021.4
2018-09-26T09:04:33.002Z,1021.4
2018-09-26T09:05:34.397Z,1021.4
2018-09-26T09:06:35.792Z,1021.4
2018-09-26T09:07:37.189Z,1021.5
2018-09-26T09:08:38.586Z,1021.5
2018-09-26T09:09:39.989Z,1021.5
2018-09-26T09:10:41.401Z,1021.5
2018-09-26T09:11:42.812Z,1021.5
2018-09-26T09:12:44.233Z,1021.5
2018-09-26T09:13:45.633Z,1021.5
2018-09-26T09:14:47.186Z,1021.5
2018-09-26T09:15:48.463Z,1021.5
2018-09-26T09:16:50.540Z,1021.5
2018-09-26T09:17:51.990Z,1021.5
2018-09-26T09:18:53.393Z,1021.4
2018-09-26T09:19:54.797Z,1021.5
2018-09-26T09:20:56.219Z,1021.4
2018-09-26T09:21:57.634Z,1021.4
2018-09-26T09:22:59.042Z,1021.3
2018-09-26T09:24:00.576Z,1021.4
2018-09-26T09:25:01.987Z,1021.4
2018-09-26T09:26:03.392Z,1021.3
2018-09-26T09:27:04.832Z,1021.3
2018-09-26T09:28:06.220Z,1021.3
2018-09-26T09:29:07.622Z,1021.3
2018-09-26T09:30:09.022Z,1021.3
2018-09-26T09:31:10.431Z,1021.4
2018-09-26T09:32:11.888Z,1021.4
2018-09-26T09:33:13.249Z,1021.4
2018-09-26T09:34:14.648Z,1021.4
2018-09-26T09:35:16.049Z,1021.4
2018-09-26T09:36:17.574Z,1021.4
2018-09-26T09:37:18.996Z,1021.4
2018-09-26T09:38:20.492Z,1021.4
2018-09-26T09:39:21.768Z,1021.4
2018-09-26T09:40:23.199Z,1021.4
2018-09-26T09:41:24.605Z,1021.4
2018-09-26T09:42:26.003Z,1021.4
2018-09-26T09:43:27.401Z,1021.4
2018-09-26T09:44:28.862Z,1021.4
2018-09-26T09:45:30.207Z,1021.3
2018-09-26T09:46:31.638Z,1021.3
2018-09-26T09:47:33.088Z,1021.3
2018-09-26T09:48:34.497Z,1021.3
2018-09-26T09:49:35.902Z,1021.3
2018-09-26T09:50:37.641Z,1021.3
2018-09-26T09:51:39.165Z,1021.3
2018-09-26T09:52:40.493Z,1021.3
2018-09-26T09:53:41.900Z,1021.4
2018-09-26T09:54:43.339Z,1021.3
2018-09-26T09:55:44.710Z,1021.3
2018-09-26T09:56:46.120Z,1021.4
2018-09-26T09:57:47.521Z,1021.4
2018-09-26T09:58:48.926Z,1021.4
2018-09-26T09:59:50.356Z,1021.4
2018-09-26T10:00:51.772Z,1021.3
2018-09-26T10:01:53.182Z,1021.3
2018-09-26T10:02:54.683Z,1021.3
2018-09-26T10:03:55.997Z,1021.3
2018-09-26T10:04:57.402Z,1021.4
2018-09-26T10:05:58.810Z,1021.3
2018-09-26T10:07:00.213Z,1021.3
2018-09-26T10:08:01.622Z,1021.3
2018-09-26T10:09:03.111Z,1021.3
2018-09-26T10:10:04.507Z,1021.3
2018-09-26T10:11:05.911Z,1021.3
2018-09-26T10:12:07.346Z,1021.3
2018-09-26T10:13:08.752Z,1021.3
2018-09-26T10:14:10.220Z,1021.3
2018-09-26T10:15:11.582Z,1021.3
2018-09-26T10:16:13.013Z,1021.3
2018-09-26T10:17:14.420Z,1021.3
2018-09-26T10:18:15.846Z,1021.3
2018-09-26T10:19:17.248Z,1021.3
2018-09-26T10:20:18.659Z,1021.3
2018-09-26T10:21:20.067Z,1021.2
2018-09-26T10:22:21.492Z,1021.3
2018-09-26T10:23:22.912Z,1021.3
2018-09-26T10:24:24.320Z,1021.3
2018-09-26T10:25:25.723Z,1021.3
2018-09-26T10:26:27.246Z,1021.3
2018-09-26T10:27:28.594Z,1021.3
2018-09-26T10:28:30.002Z,1021.3
2018-09-26T10:29:31.409Z,1021.3
2018-09-26T10:30:33.477Z,1021.3
2018-09-26T10:31:34.880Z,1021.3
2018-09-26T10:32:36.341Z,1021.3
2018-09-26T10:33:37.748Z,1021.2
2018-09-26T10:34:39.166Z,1021.2
2018-09-26T10:35:41.363Z,1021.2
2018-09-26T10:36:42.768Z,1021.2
2018-09-26T10:37:44.174Z,1021.2
2018-09-26T10:38:45.574Z,1021.2
2018-09-26T10:39:46.981Z,1021.2
2018-09-26T10:40:48.441Z,1021.2
2018-09-26T10:41:49.787Z,1021.2
2018-09-26T10:42:51.197Z,1021.2
2018-09-26T10:43:52.601Z,1021.2
2018-09-26T10:44:54.009Z,1021.2
2018-09-26T10:45:55.412Z,1021.2
2018-09-26T10:46:56.964Z,1021.2
2018-09-26T10:47:58.364Z,1021.2
2018-09-26T10:48:59.770Z,1021.3
2018-09-26T10:50:01.199Z,1021.2
2018-09-26T10:51:02.647Z,1021.2
2018-09-26T10:52:04.049Z,1021.3
2018-09-26T10:53:05.456Z,1021.3
2018-09-26T10:54:06.864Z,1021.3
2018-09-26T10:55:08.306Z,1021.3
2018-09-26T10:56:09.773Z,1021.3
2018-09-26T10:57:11.161Z,1021.3
2018-09-26T10:58:12.568Z,1021.3
2018-09-26T10:59:13.999Z,1021.3
2018-09-26T11:00:15.396Z,1021.4
2018-09-26T11:01:16.795Z,1021.3
2018-09-26T11:02:18.264Z,1021.3
2018-09-26T11:03:19.686Z,1021.3
2018-09-26T11:04:21.109Z,1021.4
2018-09-26T11:05:22.507Z,1021.3
2018-09-26T11:06:24.100Z,1021.3
2018-09-26T11:07:25.580Z,1021.3
2018-09-26T11:08:26.979Z,1021.3
2018-09-26T11:09:28.381Z,1021.2
2018-09-26T11:10:29.787Z,1021.3
2018-09-26T11:11:31.190Z,1021.3
2018-09-26T11:12:32.617Z,1021.2
2018-09-26T11:13:33.991Z,1021.2
2018-09-26T11:14:35.391Z,1021.2
2018-09-26T11:15:36.803Z,1021.2
2018-09-26T11:16:38.205Z,1021.2
2018-09-26T11:17:39.616Z,1021.2
2018-09-26T11:18:41.032Z,1021.2
2018-09-26T11:19:42.425Z,1021.2
2018-09-26T11:20:43.828Z,1021.1
2018-09-26T11:21:45.238Z,1021.1
2018-09-26T11:22:46.643Z,1021.1
2018-09-26T11:23:48.050Z,1021.1
2018-09-26T11:24:49.460Z,1021.1
2018-09-26T11:25:50.914Z,1021.1
2018-09-26T11:26:52.278Z,1021.1
2018-09-26T11:27:53.686Z,1021.1
2018-09-26T11:28:55.087Z,1021.1
2018-09-26T11:29:56.492Z,1021.1
2018-09-26T11:30:57.895Z,1021.1
2018-09-26T11:31:59.357Z,1021.1
2018-09-26T11:33:00.763Z,1021.1
2018-09-26T11:34:02.168Z,1021.0
2018-09-26T11:35:03.576Z,1021.1
2018-09-26T11:36:04.971Z,1021.1
2018-09-26T11:37:06.379Z,1021.0
2018-09-26T11:38:07.824Z,1021.0
2018-09-26T11:39:09.188Z,1021.0
2018-09-26T11:40:10.707Z,1021.0
2018-09-26T11:41:12.055Z,1020.9
2018-09-26T11:42:13.460Z,1021.0
2018-09-26T11:43:14.863Z,1020.9
2018-09-26T11:44:16.344Z,1020.9
2018-09-26T11:45:17.695Z,1020.9
2018-09-26T11:46:19.158Z,1020.9
2018-09-26T11:47:20.497Z,1021.0
2018-09-26T11:48:21.904Z,1021.0
2018-09-26T11:49:23.304Z,1020.9
2018-09-26T11:50:24.715Z,1020.9
2018-09-26T11:51:26.104Z,1020.9
2018-09-26T11:52:27.507Z,1020.9
2018-09-26T11:53:28.948Z,1020.9
2018-09-26T11:54:30.416Z,1021.0
2018-09-26T11:55:31.818Z,1020.9
2018-09-26T11:56:33.247Z,1020.9
2018-09-26T11:57:34.659Z,1020.8
2018-09-26T11:58:36.347Z,1020.8
2018-09-26T11:59:37.732Z,1020.8
2018-09-26T12:00:39.140Z,1020.8
2018-09-26T12:01:40.544Z,1020.8
2018-09-26T12:02:41.980Z,1020.8
2018-09-26T12:03:43.400Z,1020.8
2018-09-26T12:04:44.807Z,1020.7
2018-09-26T12:05:46.209Z,1020.8
2018-09-26T12:06:47.649Z,1020.7
2018-09-26T12:07:49.047Z,1020.7
2018-09-26T12:08:50.457Z,1020.7
2018-09-26T12:09:51.851Z,1020.6
2018-09-26T12:10:53.257Z,1020.6
2018-09-26T12:11:54.694Z,1020.6
2018-09-26T12:12:56.093Z,1020.6
2018-09-26T12:13:57.643Z,1020.6
2018-09-26T12:14:59.011Z,1020.5
2018-09-26T12:16:00.419Z,1020.5
2018-09-26T12:17:01.817Z,1020.5
2018-09-26T12:18:03.220Z,1020.5
2018-09-26T12:19:04.638Z,1020.5
2018-09-26T12:20:06.018Z,1020.5
2018-09-26T12:21:07.422Z,1020.5
2018-09-26T12:22:08.925Z,1020.5
2018-09-26T12:23:10.228Z,1020.5
2018-09-26T12:24:11.696Z,1020.5
2018-09-26T12:25:13.097Z,1020.5
2018-09-26T12:26:14.438Z,1020.5
2018-09-26T12:27:15.841Z,1020.5
2018-09-26T12:28:17.330Z,1020.5
2018-09-26T12:29:19.557Z,1020.4
2018-09-26T12:30:21.032Z,1020.4
2018-09-26T12:31:22.369Z,1020.4
2018-09-26T12:32:23.768Z,1020.4
2018-09-26T12:33:25.176Z,1020.4
2018-09-26T12:34:26.605Z,1020.4
2018-09-26T12:35:27.983Z,1020.3
2018-09-26T12:36:29.384Z,1020.3
2018-09-26T12:37:30.801Z,1020.3
2018-09-26T12:38:32.201Z,1020.4
2018-09-26T12:39:33.642Z,1020.3
2018-09-26T12:40:35.030Z,1020.3
2018-09-26T12:41:36.436Z,1020.3
2018-09-26T12:42:37.853Z,1020.3
2018-09-26T12:43:39.247Z,1020.3
2018-09-26T12:44:40.654Z,1020.3
2018-09-26T12:45:42.058Z,1020.2